createdAt,value
2023-04-18T00:02:07.178Z,58.63
2023-04-18T00:04:36.082Z,59.00
2023-04-18T00:07:04.394Z,58.60
2023-04-18T00:09:33.035Z,60.20
2023-04-18T00:12:04.488Z,59.65
2023-04-18T00:14:34.314Z,60.95
2023-04-18T00:17:04.277Z,61.70
2023-04-18T00:19:34.442Z,60.28
2023-04-18T00:22:02.903Z,59.15
2023-04-18T00:24:31.605Z,60.97
2023-04-18T00:26:59.994Z,63.30
2023-04-18T00:29:29.098Z,62.53
2023-04-18T00:31:57.226Z,61.17
2023-04-18T00:34:26.995Z,63.15
2023-04-18T00:36:55.524Z,62.53
2023-04-18T00:39:23.696Z,66.10
2023-04-18T00:41:52.098Z,62.17
2023-04-18T00:44:20.367Z,63.05
2023-04-18T00:46:48.704Z,64.18
2023-04-18T00:49:17.239Z,61.65
2023-04-18T00:51:47.707Z,61.33
2023-04-18T00:54:19.032Z,63.25
2023-04-18T00:56:47.302Z,63.20
2023-04-18T00:59:15.624Z,62.22
2023-04-18T01:01:45.414Z,65.22
2023-04-18T01:04:13.972Z,66.22
2023-04-18T01:06:44.128Z,64.35
2023-04-18T01:09:14.888Z,65.38
2023-04-18T01:11:42.988Z,63.75
2023-04-18T01:14:11.218Z,63.25
2023-04-18T01:16:40.241Z,62.08
2023-04-18T01:19:08.472Z,63.13
2023-04-18T01:21:37.420Z,61.75
2023-04-18T01:24:12.401Z,62.78
2023-04-18T01:26:41.130Z,62.05
2023-04-18T01:29:09.265Z,63.00
2023-04-18T01:31:38.848Z,62.30
2023-04-18T01:34:07.503Z,59.92
2023-04-18T01:36:36.776Z,61.05
2023-04-18T01:39:05.608Z,61.88
2023-04-18T01:41:35.329Z,60.72
2023-04-18T01:44:03.665Z,61.75
2023-04-18T01:46:32.755Z,60.92
2023-04-18T01:49:01.070Z,59.50
2023-04-18T01:51:29.210Z,61.15
2023-04-18T01:53:57.499Z,61.53
2023-04-18T01:56:25.591Z,60.53
2023-04-18T01:58:55.066Z,61.03
2023-04-18T02:01:24.021Z,59.78
2023-04-18T02:03:52.360Z,61.30
2023-04-18T02:06:20.694Z,58.65
2023-04-18T02:08:49.808Z,60.00
2023-04-18T02:11:17.992Z,60.40
2023-04-18T02:13:46.134Z,60.15
2023-04-18T02:16:16.302Z,58.17
2023-04-18T02:18:44.857Z,58.45
2023-04-18T02:21:13.253Z,55.05
2023-04-18T02:23:42.050Z,56.95
2023-04-18T02:26:10.200Z,57.85
2023-04-18T02:28:39.253Z,55.20
2023-04-18T02:31:14.742Z,54.78
2023-04-18T02:33:45.111Z,55.83
2023-04-18T02:36:14.054Z,55.58
2023-04-18T02:38:42.457Z,53.95
2023-04-18T02:41:15.121Z,54.55
2023-04-18T02:43:43.747Z,55.87
2023-04-18T02:46:11.982Z,53.50
2023-04-18T02:48:40.266Z,56.15
2023-04-18T02:51:10.977Z,55.28
2023-04-18T02:53:39.181Z,55.70
2023-04-18T02:56:08.393Z,55.47
2023-04-18T02:58:37.247Z,54.25
2023-04-18T03:01:05.692Z,55.10
2023-04-18T03:03:33.878Z,52.75
2023-04-18T03:06:02.158Z,53.58
2023-04-18T03:08:31.744Z,55.10
2023-04-18T03:10:59.996Z,53.38
2023-04-18T03:13:28.650Z,53.97
2023-04-18T03:15:56.986Z,51.83
2023-04-18T03:18:25.316Z,51.53
2023-04-18T03:20:54.006Z,52.67
2023-04-18T03:23:22.196Z,53.40
2023-04-18T03:25:51.826Z,52.92
2023-04-18T03:28:20.690Z,50.92
2023-04-18T03:30:48.830Z,53.05
2023-04-18T03:33:18.092Z,52.30
2023-04-18T03:35:46.673Z,51.97
2023-04-18T03:38:15.113Z,52.10
2023-04-18T03:40:44.517Z,49.70
2023-04-18T03:43:14.168Z,51.17
2023-04-18T03:45:44.157Z,51.42
2023-04-18T03:48:13.444Z,49.85
2023-04-18T03:50:42.082Z,50.55
2023-04-18T03:53:10.444Z,49.80
2023-04-18T03:55:39.074Z,50.42
2023-04-18T03:58:07.422Z,49.95
2023-04-18T04:00:37.415Z,50.25
2023-04-18T04:03:07.043Z,48.95
2023-04-18T04:05:36.035Z,47.20
2023-04-18T04:08:04.215Z,46.38
2023-04-18T04:10:32.383Z,45.83
2023-04-18T04:13:01.062Z,46.80
2023-04-18T04:15:29.259Z,44.75
2023-04-18T04:17:59.090Z,45.45
2023-04-18T04:20:28.158Z,44.60
2023-04-18T04:22:58.152Z,43.38
2023-04-18T04:25:29.894Z,44.85
2023-04-18T04:27:58.075Z,42.13
2023-04-18T04:30:26.256Z,41.50
2023-04-18T04:32:56.652Z,40.83
2023-04-18T04:35:26.909Z,41.20
2023-04-18T04:37:55.325Z,40.72
2023-04-18T04:40:24.498Z,39.47
2023-04-18T04:42:54.184Z,38.80
2023-04-18T04:45:23.401Z,38.38
2023-04-18T04:47:51.628Z,38.13
2023-04-18T04:50:20.140Z,38.75
2023-04-18T04:52:49.942Z,38.28
2023-04-18T04:55:19.058Z,38.58
2023-04-18T04:57:47.816Z,37.35
2023-04-18T05:00:20.977Z,36.92
2023-04-18T05:02:49.414Z,37.03
2023-04-18T05:05:17.734Z,35.10
2023-04-18T05:07:46.207Z,35.42
2023-04-18T05:10:16.225Z,34.78
2023-04-18T05:12:44.478Z,35.25
2023-04-18T05:15:13.692Z,33.47
2023-04-18T05:17:42.066Z,34.05
2023-04-18T05:20:11.413Z,34.90
2023-04-18T05:22:39.666Z,33.05
2023-04-18T05:25:09.007Z,32.20
2023-04-18T05:27:38.577Z,31.58
2023-04-18T05:30:08.345Z,32.50
2023-04-18T05:32:38.989Z,32.72
2023-04-18T05:35:08.082Z,31.67
2023-04-18T05:37:36.520Z,32.50
2023-04-18T05:40:05.288Z,31.90
2023-04-18T05:42:33.626Z,31.33
2023-04-18T05:45:03.447Z,29.17
2023-04-18T05:47:33.661Z,28.85
2023-04-18T05:50:01.925Z,27.48
2023-04-18T05:52:30.180Z,27.38
2023-04-18T05:54:58.480Z,25.60
2023-04-18T05:57:27.231Z,25.23
2023-04-18T05:59:55.907Z,25.10
2023-04-18T06:02:25.740Z,23.70
2023-04-18T06:04:54.412Z,22.65
2023-04-18T06:07:25.353Z,23.33
2023-04-18T06:09:54.102Z,21.63
2023-04-18T06:12:22.517Z,21.15
2023-04-18T06:14:51.688Z,21.98
2023-04-18T06:17:20.841Z,22.00
2023-04-18T06:19:50.381Z,21.25
2023-04-18T06:22:18.863Z,19.90
2023-04-18T06:24:47.673Z,19.55
2023-04-18T06:27:30.278Z,19.00
2023-04-18T06:30:00.088Z,19.23
2023-04-18T06:32:28.338Z,19.05
2023-04-18T06:34:57.911Z,18.73
2023-04-18T06:37:26.550Z,17.33
2023-04-18T06:39:55.689Z,17.08
2023-04-18T06:42:23.887Z,16.48
2023-04-18T06:44:52.383Z,16.05
2023-04-18T06:47:20.641Z,16.73
2023-04-18T06:49:49.115Z,16.02
2023-04-18T06:52:18.903Z,15.68
2023-04-18T06:54:46.981Z,16.17
2023-04-18T06:57:15.167Z,15.63
2023-04-18T06:59:43.795Z,15.43
2023-04-18T07:02:12.646Z,15.05
2023-04-18T07:04:41.156Z,15.57
2023-04-18T07:07:10.235Z,15.82
2023-04-18T07:09:39.963Z,14.85
2023-04-18T07:12:08.434Z,15.52
2023-04-18T07:14:37.030Z,15.05
2023-04-18T07:17:05.324Z,15.25
2023-04-18T07:19:33.575Z,14.98
2023-04-18T07:22:02.351Z,14.18
2023-04-18T07:24:30.999Z,14.60
2023-04-18T07:27:01.381Z,15.60
2023-04-18T07:29:29.963Z,14.80
2023-04-18T07:31:58.956Z,14.68
2023-04-18T07:34:29.872Z,14.98
2023-04-18T07:36:59.139Z,15.15
2023-04-18T07:39:27.390Z,14.25
2023-04-18T07:41:55.564Z,14.00
2023-04-18T07:44:26.005Z,15.13
2023-04-18T07:46:54.265Z,13.43
2023-04-18T07:49:22.505Z,15.50
2023-04-18T07:51:50.829Z,14.90
2023-04-18T07:54:18.995Z,14.90
2023-04-18T07:56:47.525Z,14.25
2023-04-18T07:59:16.730Z,15.20
2023-04-18T08:01:46.602Z,14.68
2023-04-18T08:04:15.948Z,14.90
2023-04-18T08:06:44.624Z,14.95
2023-04-18T08:09:13.077Z,14.20
2023-04-18T08:11:43.620Z,14.18
2023-04-18T08:14:12.207Z,15.00
2023-04-18T08:16:40.503Z,15.10
2023-04-18T08:19:10.261Z,14.23
2023-04-18T08:21:39.585Z,14.63
2023-04-18T08:24:08.400Z,15.15
2023-04-18T08:26:36.611Z,14.48
2023-04-18T08:29:05.256Z,14.88
2023-04-18T08:31:33.541Z,13.98
2023-04-18T08:34:03.127Z,14.98
2023-04-18T08:36:36.353Z,14.80
2023-04-18T08:39:04.645Z,15.05
2023-04-18T08:41:37.389Z,14.00
2023-04-18T08:44:05.833Z,14.80
2023-04-18T08:46:35.893Z,14.93
2023-04-18T08:49:06.301Z,16.50
2023-04-18T08:51:36.011Z,17.63
2023-04-18T08:54:08.270Z,20.23
2023-04-18T08:56:37.533Z,17.73
2023-04-18T08:59:06.011Z,19.17
2023-04-18T09:01:57.066Z,20.30
2023-04-18T09:04:37.335Z,19.02
2023-04-18T09:07:09.196Z,19.48
2023-04-18T09:09:48.152Z,20.73
2023-04-18T09:12:19.996Z,20.75
2023-04-18T09:14:50.377Z,21.42
2023-04-18T09:17:33.192Z,20.92
2023-04-18T09:20:05.182Z,21.23
2023-04-18T09:22:51.951Z,21.85
2023-04-18T09:25:30.536Z,19.63
2023-04-18T09:28:01.384Z,19.73
2023-04-18T09:30:36.946Z,21.15
2023-04-18T09:33:07.926Z,21.52
2023-04-18T09:35:37.027Z,22.10
2023-04-18T09:38:07.286Z,22.60
2023-04-18T09:40:35.895Z,23.70
2023-04-18T09:43:19.467Z,25.20
2023-04-18T09:45:49.748Z,22.73
2023-04-18T09:48:18.087Z,23.30
2023-04-18T09:50:48.685Z,24.48
2023-04-18T09:53:21.100Z,26.20
2023-04-18T09:55:53.255Z,27.30
2023-04-18T09:58:24.092Z,27.23
2023-04-18T10:00:54.751Z,27.55
2023-04-18T10:03:27.375Z,26.05
2023-04-18T10:05:57.762Z,26.13
2023-04-18T10:08:28.614Z,24.73
2023-04-18T10:10:58.731Z,24.15
2023-04-18T10:13:29.381Z,23.90
2023-04-18T10:15:58.536Z,22.77
2023-04-18T10:18:26.863Z,23.48
2023-04-18T10:21:04.343Z,23.17
2023-04-18T10:23:39.131Z,22.98
2023-04-18T10:26:08.013Z,22.80
2023-04-18T10:28:54.568Z,21.50
2023-04-18T10:31:24.719Z,21.65
2023-04-18T10:36:28.460Z,21.88
2023-04-18T10:39:03.212Z,20.77
2023-04-18T10:41:33.099Z,20.92
2023-04-18T10:44:22.403Z,21.30
2023-04-18T10:47:33.739Z,20.75
2023-04-18T10:50:07.031Z,21.05
2023-04-18T10:52:36.101Z,21.55
2023-04-18T10:55:26.859Z,19.60
2023-04-18T10:57:57.912Z,19.83
2023-04-18T11:00:26.773Z,19.70
2023-04-18T11:02:57.764Z,19.75
2023-04-18T11:05:28.292Z,19.10
2023-04-18T11:07:56.763Z,18.90
2023-04-18T11:10:27.874Z,19.13
2023-04-18T11:12:56.843Z,18.33
2023-04-18T11:15:28.605Z,18.88
2023-04-18T11:17:59.974Z,17.63
2023-04-18T11:20:28.936Z,19.35
2023-04-18T11:22:58.259Z,19.55
2023-04-18T11:25:30.625Z,19.70
2023-04-18T11:28:01.122Z,20.00
2023-04-18T11:30:36.996Z,19.08
2023-04-18T11:33:07.545Z,19.92
2023-04-18T11:35:39.279Z,18.52
2023-04-18T11:38:08.089Z,18.13
2023-04-18T11:40:39.801Z,18.42
2023-04-18T11:43:08.753Z,18.23
2023-04-18T11:45:36.960Z,18.05
2023-04-18T11:48:05.387Z,17.45
2023-04-18T11:50:38.444Z,17.65
2023-04-18T11:53:06.673Z,17.50
2023-04-18T11:55:36.210Z,16.60
2023-04-18T11:58:06.403Z,15.38
2023-04-18T12:00:37.227Z,16.05
2023-04-18T12:03:09.035Z,16.60
2023-04-18T12:05:39.639Z,15.35
2023-04-18T12:08:11.638Z,14.25
2023-04-18T12:10:46.581Z,14.85
2023-04-18T12:13:16.620Z,15.40
2023-04-18T12:15:46.498Z,15.93
2023-04-18T12:18:15.828Z,16.88
2023-04-18T12:20:50.678Z,16.75
2023-04-18T12:23:35.636Z,16.23
2023-04-18T12:26:05.959Z,16.35
2023-04-18T12:28:36.625Z,15.35
2023-04-18T12:31:07.579Z,15.95
2023-04-18T12:33:36.828Z,15.80
2023-04-18T12:36:06.155Z,16.48
2023-04-18T12:38:34.639Z,16.27
2023-04-18T12:41:02.803Z,15.88
2023-04-18T12:43:31.201Z,15.48
2023-04-18T12:46:01.740Z,17.50
2023-04-18T12:48:29.884Z,17.67
2023-04-18T12:50:58.045Z,19.13
2023-04-18T12:53:26.458Z,20.15
2023-04-18T12:55:54.646Z,19.67
2023-04-18T12:58:23.057Z,18.10
2023-04-18T13:00:51.528Z,17.75
2023-04-18T13:03:21.365Z,18.63
2023-04-18T13:05:49.626Z,18.13
2023-04-18T13:08:18.224Z,18.15
2023-04-18T13:10:47.418Z,17.65
2023-04-18T13:13:15.795Z,18.05
2023-04-18T13:15:44.043Z,18.17
2023-04-18T13:18:12.212Z,18.58
2023-04-18T13:20:42.226Z,18.48
2023-04-18T13:23:10.920Z,19.45
2023-04-18T13:25:39.720Z,19.70
2023-04-18T13:28:08.083Z,19.88
2023-04-18T13:30:37.160Z,19.13
2023-04-18T13:33:05.396Z,18.35
2023-04-18T13:35:33.910Z,20.48
2023-04-18T13:38:04.268Z,21.25
2023-04-18T13:40:33.474Z,21.98
2023-04-18T13:43:01.804Z,23.17
2023-04-18T13:45:30.112Z,23.75
2023-04-18T13:47:58.303Z,21.98
2023-04-18T13:50:26.719Z,21.33
2023-04-18T13:52:55.290Z,21.95
2023-04-18T13:55:25.180Z,20.88
2023-04-18T13:57:53.365Z,19.27
2023-04-18T14:00:22.270Z,18.55
2023-04-18T14:02:50.960Z,16.70
2023-04-18T14:05:19.776Z,16.15
2023-04-18T14:07:49.127Z,16.10
2023-04-18T14:10:17.244Z,14.27
2023-04-18T14:12:46.993Z,14.57
2023-04-18T14:15:15.210Z,14.63
2023-04-18T14:17:45.520Z,14.52
2023-04-18T14:20:19.397Z,15.13
2023-04-18T14:22:47.649Z,15.40
2023-04-18T14:25:17.018Z,15.90
2023-04-18T14:27:48.982Z,14.93
2023-04-18T14:30:17.436Z,14.25
2023-04-18T14:32:45.801Z,14.75
2023-04-18T14:35:14.755Z,14.82
2023-04-18T14:37:43.665Z,13.45
2023-04-18T14:40:12.810Z,13.35
2023-04-18T14:42:41.131Z,13.10
2023-04-18T14:45:12.563Z,12.10
2023-04-18T14:47:42.061Z,12.50
2023-04-18T14:50:12.550Z,11.88
2023-04-18T14:52:41.306Z,12.65
2023-04-18T14:55:10.933Z,13.25
2023-04-18T14:57:40.119Z,12.68
2023-04-18T15:00:12.232Z,13.10
2023-04-18T15:02:41.405Z,13.27
2023-04-18T15:05:13.660Z,14.50
2023-04-18T15:07:43.665Z,15.25
2023-04-18T15:10:13.189Z,15.30
2023-04-18T15:12:41.573Z,16.10
2023-04-18T15:15:12.564Z,16.40
2023-04-18T15:17:40.910Z,16.80
2023-04-18T15:20:10.301Z,17.58
2023-04-18T15:22:38.825Z,17.45
2023-04-18T15:25:08.271Z,18.67
2023-04-18T15:27:36.479Z,17.00
2023-04-18T15:30:05.086Z,19.25
2023-04-18T15:32:34.883Z,18.20
2023-04-18T15:35:03.317Z,18.02
2023-04-18T15:37:31.963Z,19.35
2023-04-18T15:40:00.180Z,18.45
2023-04-18T15:42:29.194Z,17.95
2023-04-18T15:44:57.620Z,18.73
2023-04-18T15:47:25.897Z,19.65
2023-04-18T15:49:55.966Z,18.73
2023-04-18T15:52:24.290Z,20.98
2023-04-18T15:54:52.981Z,21.42
2023-04-18T15:57:21.826Z,21.65
2023-04-18T15:59:50.148Z,21.23
2023-04-18T16:02:18.333Z,21.95
2023-04-18T16:04:46.934Z,21.50
2023-04-18T16:07:17.256Z,21.73
2023-04-18T16:09:45.385Z,21.42
2023-04-18T16:12:13.728Z,21.10
2023-04-18T16:14:42.309Z,21.55
2023-04-18T16:17:12.632Z,21.05
2023-04-18T16:19:41.074Z,22.70
2023-04-18T16:22:12.520Z,22.83
2023-04-18T16:24:42.374Z,22.35
2023-04-18T16:27:10.587Z,22.48
2023-04-18T16:29:38.827Z,21.75
2023-04-18T16:32:08.415Z,22.83
2023-04-18T16:34:36.670Z,22.08
2023-04-18T16:37:04.962Z,22.55
2023-04-18T16:39:33.385Z,23.15
2023-04-18T16:42:03.020Z,23.13
2023-04-18T16:44:31.585Z,23.63
2023-04-18T16:47:00.022Z,24.95
2023-04-18T16:49:28.380Z,24.45
2023-04-18T16:51:56.678Z,24.48
2023-04-18T16:54:25.064Z,23.80
2023-04-18T16:56:53.377Z,23.30
2023-04-18T16:59:23.090Z,23.40
2023-04-18T17:01:51.435Z,23.88
2023-04-18T17:04:19.664Z,24.40
2023-04-18T17:06:48.580Z,24.38
2023-04-18T17:09:19.785Z,24.30
2023-04-18T17:11:48.103Z,24.63
2023-04-18T17:14:16.739Z,24.08
2023-04-18T17:16:46.442Z,23.70
2023-04-18T17:19:14.948Z,23.80
2023-04-18T17:21:44.106Z,22.42
2023-04-18T17:24:12.345Z,22.95
2023-04-18T17:26:40.894Z,22.23
2023-04-18T17:29:09.177Z,22.50
2023-04-18T17:31:37.860Z,22.75
2023-04-18T17:34:07.569Z,22.17
2023-04-18T17:36:35.776Z,23.38
2023-04-18T17:39:06.501Z,23.75
2023-04-18T17:41:38.078Z,23.52
2023-04-18T17:44:08.333Z,24.27
2023-04-18T17:46:37.120Z,23.70
2023-04-18T17:49:05.776Z,25.20
2023-04-18T17:51:35.375Z,25.02
2023-04-18T17:54:05.161Z,25.80
2023-04-18T17:56:33.491Z,25.85
2023-04-18T17:59:01.983Z,25.92
2023-04-18T18:01:30.568Z,26.10
2023-04-18T18:03:59.186Z,26.35
2023-04-18T18:06:28.406Z,28.38
2023-04-18T18:08:58.050Z,28.83
2023-04-18T18:11:27.757Z,29.27
2023-04-18T18:13:57.534Z,30.63
2023-04-18T18:16:26.195Z,31.38
2023-04-18T18:18:54.765Z,30.45
2023-04-18T18:21:22.986Z,31.67
2023-04-18T18:23:51.295Z,30.70
2023-04-18T18:26:20.910Z,32.03
2023-04-18T18:28:49.198Z,30.58
2023-04-18T18:31:19.725Z,31.10
2023-04-18T18:33:48.151Z,30.55
2023-04-18T18:36:16.376Z,32.67
2023-04-18T18:38:47.674Z,31.52
2023-04-18T18:41:16.068Z,32.22
2023-04-18T18:43:45.868Z,32.35
2023-04-18T18:46:15.870Z,31.25
2023-04-18T18:48:44.454Z,30.92
2023-04-18T18:51:12.725Z,31.98
2023-04-18T18:53:40.928Z,32.55
2023-04-18T18:56:09.887Z,31.88
2023-04-18T18:58:39.216Z,30.67
2023-04-18T19:01:08.922Z,32.28
2023-04-18T19:03:37.350Z,32.78
2023-04-18T19:06:07.365Z,33.53
2023-04-18T19:08:36.109Z,33.45
2023-04-18T19:11:04.584Z,32.63
2023-04-18T19:13:33.034Z,33.78
2023-04-18T19:16:01.224Z,33.70
2023-04-18T19:18:31.095Z,33.72
2023-04-18T19:20:59.423Z,34.38
2023-04-18T19:23:27.856Z,33.60
2023-04-18T19:25:56.219Z,33.72
2023-04-18T19:28:24.754Z,33.47
2023-04-18T19:30:53.131Z,33.90
2023-04-18T19:33:24.370Z,32.90
2023-04-18T19:35:54.024Z,33.50
2023-04-18T19:38:22.249Z,32.58
2023-04-18T19:40:50.715Z,32.28
2023-04-18T19:43:19.167Z,31.05
2023-04-18T19:45:47.455Z,31.35
2023-04-18T19:48:16.713Z,30.35
2023-04-18T19:50:45.137Z,30.42
2023-04-18T19:53:15.620Z,30.40
2023-04-18T19:55:45.651Z,30.42
2023-04-18T19:58:33.708Z,30.20
2023-04-18T20:01:02.067Z,29.77
2023-04-18T20:03:31.165Z,30.48
2023-04-18T20:05:59.497Z,29.73
2023-04-18T20:08:29.403Z,28.73
2023-04-18T20:10:57.940Z,28.98
2023-04-18T20:13:26.099Z,28.60
2023-04-18T20:15:54.218Z,29.27
2023-04-18T20:18:24.062Z,29.67
2023-04-18T20:20:52.235Z,28.98
2023-04-18T20:23:20.606Z,28.67
2023-04-18T20:25:51.055Z,29.35
2023-04-18T20:28:19.246Z,28.30
2023-04-18T20:30:48.101Z,28.80
2023-04-18T20:33:16.733Z,28.20
2023-04-18T20:35:46.765Z,27.52
2023-04-18T20:38:15.364Z,28.65
2023-04-18T20:40:45.052Z,28.67
2023-04-18T20:43:17.493Z,27.55
2023-04-18T20:45:46.118Z,27.90
2023-04-18T20:48:14.462Z,28.48
2023-04-18T20:50:44.481Z,29.15
2023-04-18T20:53:12.842Z,28.75
2023-04-18T20:55:40.980Z,29.23
2023-04-18T20:58:09.209Z,29.83
2023-04-18T21:00:38.935Z,28.55
2023-04-18T21:03:07.319Z,29.20
2023-04-18T21:05:35.650Z,29.15
2023-04-18T21:08:04.149Z,29.45
2023-04-18T21:10:33.229Z,29.58
2023-04-18T21:13:01.366Z,29.00
2023-04-18T21:15:29.730Z,29.35
2023-04-18T21:17:59.443Z,28.98
2023-04-18T21:20:27.829Z,27.95
2023-04-18T21:22:56.116Z,27.95
2023-04-18T21:25:24.389Z,28.33
2023-04-18T21:27:52.542Z,27.90
2023-04-18T21:30:21.311Z,27.77
2023-04-18T21:32:51.516Z,28.08
2023-04-18T21:35:23.406Z,28.35
2023-04-18T21:37:53.278Z,28.25
2023-04-18T21:40:21.710Z,27.27
2023-04-18T21:42:50.988Z,28.25
2023-04-18T21:45:19.825Z,28.70
2023-04-18T21:47:48.045Z,28.30
2023-04-18T21:50:16.339Z,27.75
2023-04-18T21:52:46.167Z,27.30
2023-04-18T21:55:14.555Z,27.50
2023-04-18T21:57:42.741Z,28.23
2023-04-18T22:00:12.883Z,28.30
2023-04-18T22:02:41.138Z,27.42
2023-04-18T22:05:09.950Z,27.20
2023-04-18T22:07:50.153Z,27.50
2023-04-18T22:10:24.912Z,27.05
2023-04-18T22:12:54.209Z,28.50
2023-04-18T22:15:22.559Z,28.02
2023-04-18T22:17:50.757Z,27.55
2023-04-18T22:20:19.024Z,28.17
2023-04-18T22:22:47.246Z,28.85
2023-04-18T22:25:15.464Z,29.05
2023-04-18T22:27:46.522Z,27.88
2023-04-18T22:30:15.914Z,28.25
2023-04-18T22:32:44.185Z,27.35
2023-04-18T22:35:12.925Z,28.58
2023-04-18T22:37:41.131Z,28.38
2023-04-18T22:40:10.442Z,29.67
2023-04-18T22:42:39.021Z,29.05
2023-04-18T22:45:09.831Z,28.55
2023-04-18T22:47:38.058Z,28.80
2023-04-18T22:50:10.225Z,28.20
2023-04-18T22:52:38.395Z,27.52
2023-04-18T22:55:07.289Z,28.23
2023-04-18T22:57:36.017Z,28.77
2023-04-18T23:00:06.447Z,29.33
2023-04-18T23:02:36.391Z,28.70
2023-04-18T23:05:05.437Z,28.25
2023-04-18T23:07:33.561Z,28.85
2023-04-18T23:10:01.825Z,29.42
2023-04-18T23:12:30.174Z,28.73
2023-04-18T23:14:58.264Z,29.35
2023-04-18T23:17:26.659Z,29.50
2023-04-18T23:19:56.325Z,29.48
2023-04-18T23:22:25.200Z,29.63
2023-04-18T23:24:53.578Z,29.77
2023-04-18T23:27:22.122Z,29.95
2023-04-18T23:29:50.891Z,29.08
2023-04-18T23:32:19.048Z,28.00
2023-04-18T23:34:47.480Z,29.83
2023-04-18T23:37:16.991Z,29.40
2023-04-18T23:39:45.401Z,30.98
2023-04-18T23:42:13.814Z,31.33
2023-04-18T23:44:41.919Z,30.67
2023-04-18T23:47:10.205Z,30.05
2023-04-18T23:49:38.534Z,31.45
2023-04-18T23:52:07.209Z,30.00
2023-04-18T23:54:36.724Z,30.10
2023-04-18T23:57:04.997Z,32.40
2023-04-18T23:59:33.211Z,31.10
